sensor_id;sensor_type;location;lat;lon;timestamp;temperature;humidity
12634;DHT22;6382;48.614;8.880;2023-09-12T00:01:12;18.20;99.90
12634;DHT22;6382;48.614;8.880;2023-09-12T00:03:39;17.70;99.90
12634;DHT22;6382;48.614;8.880;2023-09-12T00:06:06;17.70;99.90
12634;DHT22;6382;48.614;8.880;2023-09-12T00:08:33;17.70;99.90
12634;DHT22;6382;48.614;8.880;2023-09-12T00:11:08;17.70;99.90
12634;DHT22;6382;48.614;8.880;2023-09-12T00:13:39;17.70;99.90
12634;DHT22;6382;48.614;8.880;2023-09-12T00:16:07;17.70;99.90
12634;DHT22;6382;48.614;8.880;2023-09-12T00:18:36;17.80;99.90
12634;DHT22;6382;48.614;8.880;2023-09-12T00:21:03;17.80;99.90
12634;DHT22;6382;48.614;8.880;2023-09-12T00:23:30;19.40;99.90
12634;DHT22;6382;48.614;8.880;2023-09-12T00:25:57;17.80;99.90
12634;DHT22;6382;48.614;8.880;2023-09-12T00:28:25;17.90;99.90
12634;DHT22;6382;48.614;8.880;2023-09-12T00:30:52;17.90;99.90
12634;DHT22;6382;48.614;8.880;2023-09-12T00:33:19;17.90;99.90
12634;DHT22;6382;48.614;8.880;2023-09-12T00:35:46;19.10;99.90
12634;DHT22;6382;48.614;8.880;2023-09-12T00:38:13;17.90;99.90
12634;DHT22;6382;48.614;8.880;2023-09-12T00:40:40;17.70;99.90
12634;DHT22;6382;48.614;8.880;2023-09-12T00:43:07;17.40;99.90
12634;DHT22;6382;48.614;8.880;2023-09-12T00:45:33;17.60;99.90
12634;DHT22;6382;48.614;8.880;2023-09-12T00:48:01;18.90;99.90
12634;DHT22;6382;48.614;8.880;2023-09-12T00:50:30;17.40;99.90
12634;DHT22;6382;48.614;8.880;2023-09-12T00:52:58;17.50;99.90
12634;DHT22;6382;48.614;8.880;2023-09-12T00:55:25;17.50;99.90
12634;DHT22;6382;48.614;8.880;2023-09-12T00:57:52;17.50;99.90
12634;DHT22;6382;48.614;8.880;2023-09-12T01:00:19;17.50;99.90
12634;DHT22;6382;48.614;8.880;2023-09-12T01:02:47;17.50;99.90
12634;DHT22;6382;48.614;8.880;2023-09-12T01:05:14;17.50;99.90
12634;DHT22;6382;48.614;8.880;2023-09-12T01:07:42;17.40;99.90
12634;DHT22;6382;48.614;8.880;2023-09-12T01:10:09;17.70;99.90
12634;DHT22;6382;48.614;8.880;2023-09-12T01:12:36;17.30;99.90
12634;DHT22;6382;48.614;8.880;2023-09-12T01:15:03;17.30;99.90
12634;DHT22;6382;48.614;8.880;2023-09-12T01:17:34;17.30;99.90
12634;DHT22;6382;48.614;8.880;2023-09-12T01:20:02;17.20;99.90
12634;DHT22;6382;48.614;8.880;2023-09-12T01:22:44;17.10;99.90
12634;DHT22;6382;48.614;8.880;2023-09-12T01:27:59;17.10;99.90
12634;DHT22;6382;48.614;8.880;2023-09-12T01:30:26;17.10;99.90
12634;DHT22;6382;48.614;8.880;2023-09-12T01:32:54;17.10;99.90
12634;DHT22;6382;48.614;8.880;2023-09-12T01:35:21;17.10;99.90
12634;DHT22;6382;48.614;8.880;2023-09-12T01:37:48;17.20;99.90
12634;DHT22;6382;48.614;8.880;2023-09-12T01:40:15;17.10;99.90
12634;DHT22;6382;48.614;8.880;2023-09-12T01:42:45;17.10;99.90
12634;DHT22;6382;48.614;8.880;2023-09-12T01:45:16;19.40;99.90
12634;DHT22;6382;48.614;8.880;2023-09-12T01:47:45;17.00;99.90
12634;DHT22;6382;48.614;8.880;2023-09-12T01:50:14;17.00;99.90
12634;DHT22;6382;48.614;8.880;2023-09-12T01:52:42;17.40;99.90
12634;DHT22;6382;48.614;8.880;2023-09-12T01:55:10;17.90;99.90
12634;DHT22;6382;48.614;8.880;2023-09-12T01:57:37;17.10;99.90
12634;DHT22;6382;48.614;8.880;2023-09-12T02:00:04;16.90;99.90
12634;DHT22;6382;48.614;8.880;2023-09-12T02:02:31;17.00;99.90
12634;DHT22;6382;48.614;8.880;2023-09-12T02:07:38;16.90;99.90
12634;DHT22;6382;48.614;8.880;2023-09-12T02:10:06;16.80;99.90
12634;DHT22;6382;48.614;8.880;2023-09-12T02:12:33;16.90;99.90
12634;DHT22;6382;48.614;8.880;2023-09-12T02:14:59;16.80;99.90
12634;DHT22;6382;48.614;8.880;2023-09-12T02:17:26;17.10;99.90
12634;DHT22;6382;48.614;8.880;2023-09-12T02:19:53;16.80;99.90
12634;DHT22;6382;48.614;8.880;2023-09-12T02:22:20;16.80;99.90
12634;DHT22;6382;48.614;8.880;2023-09-12T02:24:47;16.80;99.90
12634;DHT22;6382;48.614;8.880;2023-09-12T02:27:14;16.70;99.90
12634;DHT22;6382;48.614;8.880;2023-09-12T02:29:41;16.60;99.90
12634;DHT22;6382;48.614;8.880;2023-09-12T02:32:08;16.60;99.90
12634;DHT22;6382;48.614;8.880;2023-09-12T02:34:35;16.50;99.90
12634;DHT22;6382;48.614;8.880;2023-09-12T02:37:02;16.50;99.90
12634;DHT22;6382;48.614;8.880;2023-09-12T02:39:29;16.40;99.90
12634;DHT22;6382;48.614;8.880;2023-09-12T02:41:56;16.40;99.90
12634;DHT22;6382;48.614;8.880;2023-09-12T02:44:23;16.40;99.90
12634;DHT22;6382;48.614;8.880;2023-09-12T02:46:50;16.30;99.90
12634;DHT22;6382;48.614;8.880;2023-09-12T02:49:17;16.30;99.90
12634;DHT22;6382;48.614;8.880;2023-09-12T02:51:45;16.20;99.90
12634;DHT22;6382;48.614;8.880;2023-09-12T02:54:12;16.20;99.90
12634;DHT22;6382;48.614;8.880;2023-09-12T02:56:39;16.20;99.90
12634;DHT22;6382;48.614;8.880;2023-09-12T02:59:06;16.10;99.90
12634;DHT22;6382;48.614;8.880;2023-09-12T03:01:33;16.10;99.90
12634;DHT22;6382;48.614;8.880;2023-09-12T03:04:00;16.10;99.90
12634;DHT22;6382;48.614;8.880;2023-09-12T03:06:28;16.10;99.90
12634;DHT22;6382;48.614;8.880;2023-09-12T03:08:54;16.20;99.90
12634;DHT22;6382;48.614;8.880;2023-09-12T03:11:21;16.10;99.90
12634;DHT22;6382;48.614;8.880;2023-09-12T03:13:48;16.20;99.90
12634;DHT22;6382;48.614;8.880;2023-09-12T03:16:15;16.10;99.90
12634;DHT22;6382;48.614;8.880;2023-09-12T03:18:42;16.00;99.90
12634;DHT22;6382;48.614;8.880;2023-09-12T03:21:09;16.20;99.90
12634;DHT22;6382;48.614;8.880;2023-09-12T03:23:36;16.10;99.90
12634;DHT22;6382;48.614;8.880;2023-09-12T03:26:04;16.10;99.90
12634;DHT22;6382;48.614;8.880;2023-09-12T03:28:31;16.10;99.90
12634;DHT22;6382;48.614;8.880;2023-09-12T03:31:08;16.00;99.90
12634;DHT22;6382;48.614;8.880;2023-09-12T03:33:35;16.00;99.90
12634;DHT22;6382;48.614;8.880;2023-09-12T03:36:02;16.00;99.90
12634;DHT22;6382;48.614;8.880;2023-09-12T03:38:30;16.00;99.90
12634;DHT22;6382;48.614;8.880;2023-09-12T03:40:57;16.00;99.90
12634;DHT22;6382;48.614;8.880;2023-09-12T03:43:24;15.90;99.90
12634;DHT22;6382;48.614;8.880;2023-09-12T03:45:51;16.00;99.90
12634;DHT22;6382;48.614;8.880;2023-09-12T03:48:18;16.00;99.90
12634;DHT22;6382;48.614;8.880;2023-09-12T03:50:45;16.00;99.90
12634;DHT22;6382;48.614;8.880;2023-09-12T03:53:13;16.90;99.90
12634;DHT22;6382;48.614;8.880;2023-09-12T03:55:40;15.90;99.90
12634;DHT22;6382;48.614;8.880;2023-09-12T03:58:07;15.90;99.90
12634;DHT22;6382;48.614;8.880;2023-09-12T04:00:34;15.80;99.90
12634;DHT22;6382;48.614;8.880;2023-09-12T04:03:00;15.80;99.90
12634;DHT22;6382;48.614;8.880;2023-09-12T04:05:28;15.80;99.90
12634;DHT22;6382;48.614;8.880;2023-09-12T04:07:54;16.00;99.90
12634;DHT22;6382;48.614;8.880;2023-09-12T04:10:22;15.90;99.90
12634;DHT22;6382;48.614;8.880;2023-09-12T04:12:49;15.90;99.90
12634;DHT22;6382;48.614;8.880;2023-09-12T04:15:15;15.90;99.90
12634;DHT22;6382;48.614;8.880;2023-09-12T04:17:42;17.40;99.90
12634;DHT22;6382;48.614;8.880;2023-09-12T04:20:09;15.90;99.90
12634;DHT22;6382;48.614;8.880;2023-09-12T04:22:44;15.90;99.90
12634;DHT22;6382;48.614;8.880;2023-09-12T04:25:11;15.90;99.90
12634;DHT22;6382;48.614;8.880;2023-09-12T04:27:38;15.90;99.90
12634;DHT22;6382;48.614;8.880;2023-09-12T04:30:05;15.90;99.90
12634;DHT22;6382;48.614;8.880;2023-09-12T04:32:32;15.90;99.90
12634;DHT22;6382;48.614;8.880;2023-09-12T04:34:59;15.90;99.90
12634;DHT22;6382;48.614;8.880;2023-09-12T04:37:27;16.20;99.90
12634;DHT22;6382;48.614;8.880;2023-09-12T04:39:54;16.00;99.90
12634;DHT22;6382;48.614;8.880;2023-09-12T04:42:20;15.90;99.90
12634;DHT22;6382;48.614;8.880;2023-09-12T04:44:48;15.90;99.90
12634;DHT22;6382;48.614;8.880;2023-09-12T04:47:14;16.00;99.90
12634;DHT22;6382;48.614;8.880;2023-09-12T04:49:43;16.00;99.90
12634;DHT22;6382;48.614;8.880;2023-09-12T04:52:10;16.00;99.90
12634;DHT22;6382;48.614;8.880;2023-09-12T04:54:37;16.00;99.90
12634;DHT22;6382;48.614;8.880;2023-09-12T04:57:04;16.10;99.90
12634;DHT22;6382;48.614;8.880;2023-09-12T04:59:31;16.10;99.90
12634;DHT22;6382;48.614;8.880;2023-09-12T05:01:58;17.40;99.90
12634;DHT22;6382;48.614;8.880;2023-09-12T05:04:25;16.10;99.90
12634;DHT22;6382;48.614;8.880;2023-09-12T05:06:51;16.20;99.90
12634;DHT22;6382;48.614;8.880;2023-09-12T05:09:20;16.20;99.90
12634;DHT22;6382;48.614;8.880;2023-09-12T05:11:47;16.30;99.90
12634;DHT22;6382;48.614;8.880;2023-09-12T05:14:14;16.70;99.90
12634;DHT22;6382;48.614;8.880;2023-09-12T05:16:40;16.30;99.90
12634;DHT22;6382;48.614;8.880;2023-09-12T05:19:07;16.40;99.90
12634;DHT22;6382;48.614;8.880;2023-09-12T05:21:34;16.50;99.90
12634;DHT22;6382;48.614;8.880;2023-09-12T05:24:01;16.60;99.90
12634;DHT22;6382;48.614;8.880;2023-09-12T05:26:28;16.70;99.90
12634;DHT22;6382;48.614;8.880;2023-09-12T05:28:55;16.80;99.90
12634;DHT22;6382;48.614;8.880;2023-09-12T05:31:22;16.80;99.90
12634;DHT22;6382;48.614;8.880;2023-09-12T05:33:49;16.80;99.90
12634;DHT22;6382;48.614;8.880;2023-09-12T05:36:15;16.90;99.90
12634;DHT22;6382;48.614;8.880;2023-09-12T05:38:42;17.00;99.90
12634;DHT22;6382;48.614;8.880;2023-09-12T05:41:10;17.10;99.90
12634;DHT22;6382;48.614;8.880;2023-09-12T05:43:37;17.20;99.90
12634;DHT22;6382;48.614;8.880;2023-09-12T05:46:04;17.20;99.90
12634;DHT22;6382;48.614;8.880;2023-09-12T05:48:31;17.60;99.90
12634;DHT22;6382;48.614;8.880;2023-09-12T05:50:58;17.30;99.90
12634;DHT22;6382;48.614;8.880;2023-09-12T05:53:25;17.40;99.90
12634;DHT22;6382;48.614;8.880;2023-09-12T05:55:52;17.40;99.90
12634;DHT22;6382;48.614;8.880;2023-09-12T05:58:19;17.50;99.90
12634;DHT22;6382;48.614;8.880;2023-09-12T06:00:45;17.60;99.90
12634;DHT22;6382;48.614;8.880;2023-09-12T06:03:15;17.70;99.90
12634;DHT22;6382;48.614;8.880;2023-09-12T06:05:43;18.10;99.90
12634;DHT22;6382;48.614;8.880;2023-09-12T06:08:10;17.90;99.90
12634;DHT22;6382;48.614;8.880;2023-09-12T06:10:37;17.90;99.90
12634;DHT22;6382;48.614;8.880;2023-09-12T06:13:04;18.00;99.90
12634;DHT22;6382;48.614;8.880;2023-09-12T06:15:31;18.30;99.90
12634;DHT22;6382;48.614;8.880;2023-09-12T06:17:58;18.10;99.90
12634;DHT22;6382;48.614;8.880;2023-09-12T06:20:25;18.20;99.90
12634;DHT22;6382;48.614;8.880;2023-09-12T06:22:52;18.30;99.90
12634;DHT22;6382;48.614;8.880;2023-09-12T06:25:19;18.30;99.90
12634;DHT22;6382;48.614;8.880;2023-09-12T06:27:46;19.40;99.90
12634;DHT22;6382;48.614;8.880;2023-09-12T06:30:13;18.50;99.90
12634;DHT22;6382;48.614;8.880;2023-09-12T06:32:40;18.60;99.90
12634;DHT22;6382;48.614;8.880;2023-09-12T06:35:07;18.70;99.90
12634;DHT22;6382;48.614;8.880;2023-09-12T06:37:37;18.80;99.90
12634;DHT22;6382;48.614;8.880;2023-09-12T06:40:06;18.80;99.90
12634;DHT22;6382;48.614;8.880;2023-09-12T06:42:33;18.90;99.90
12634;DHT22;6382;48.614;8.880;2023-09-12T06:45:00;18.90;99.90
12634;DHT22;6382;48.614;8.880;2023-09-12T06:47:27;19.00;99.90
12634;DHT22;6382;48.614;8.880;2023-09-12T06:49:54;20.00;99.90
12634;DHT22;6382;48.614;8.880;2023-09-12T06:52:22;19.10;99.90
12634;DHT22;6382;48.614;8.880;2023-09-12T06:54:49;19.20;99.90
12634;DHT22;6382;48.614;8.880;2023-09-12T06:57:16;19.20;99.90
12634;DHT22;6382;48.614;8.880;2023-09-12T06:59:43;19.60;99.90
12634;DHT22;6382;48.614;8.880;2023-09-12T07:02:16;19.40;99.90
12634;DHT22;6382;48.614;8.880;2023-09-12T07:04:45;19.50;99.90
12634;DHT22;6382;48.614;8.880;2023-09-12T07:07:12;19.60;99.90
12634;DHT22;6382;48.614;8.880;2023-09-12T07:09:38;19.80;99.90
12634;DHT22;6382;48.614;8.880;2023-09-12T07:12:06;19.90;99.90
12634;DHT22;6382;48.614;8.880;2023-09-12T07:14:33;20.10;99.90
12634;DHT22;6382;48.614;8.880;2023-09-12T07:17:00;20.20;99.90
12634;DHT22;6382;48.614;8.880;2023-09-12T07:19:27;20.40;99.90
12634;DHT22;6382;48.614;8.880;2023-09-12T07:21:54;20.50;99.90
12634;DHT22;6382;48.614;8.880;2023-09-12T07:24:24;20.70;99.90
12634;DHT22;6382;48.614;8.880;2023-09-12T07:26:51;20.80;99.90
12634;DHT22;6382;48.614;8.880;2023-09-12T07:29:18;21.00;99.90
12634;DHT22;6382;48.614;8.880;2023-09-12T07:31:44;21.10;99.90
12634;DHT22;6382;48.614;8.880;2023-09-12T07:34:11;21.30;99.90
12634;DHT22;6382;48.614;8.880;2023-09-12T07:36:41;21.50;99.90
12634;DHT22;6382;48.614;8.880;2023-09-12T07:39:08;21.60;99.90
12634;DHT22;6382;48.614;8.880;2023-09-12T07:41:36;21.70;99.90
12634;DHT22;6382;48.614;8.880;2023-09-12T07:44:02;21.70;99.90
12634;DHT22;6382;48.614;8.880;2023-09-12T07:46:31;21.80;99.90
12634;DHT22;6382;48.614;8.880;2023-09-12T07:48:58;21.80;99.90
12634;DHT22;6382;48.614;8.880;2023-09-12T07:51:25;22.40;99.90
12634;DHT22;6382;48.614;8.880;2023-09-12T07:53:52;21.80;99.90
12634;DHT22;6382;48.614;8.880;2023-09-12T07:56:19;21.80;99.90
12634;DHT22;6382;48.614;8.880;2023-09-12T07:58:46;21.90;99.90
12634;DHT22;6382;48.614;8.880;2023-09-12T08:01:12;21.90;99.90
12634;DHT22;6382;48.614;8.880;2023-09-12T08:03:41;21.90;99.90
12634;DHT22;6382;48.614;8.880;2023-09-12T08:06:09;21.90;99.90
12634;DHT22;6382;48.614;8.880;2023-09-12T08:08:36;22.00;99.90
12634;DHT22;6382;48.614;8.880;2023-09-12T08:11:03;22.20;99.90
12634;DHT22;6382;48.614;8.880;2023-09-12T08:13:30;22.00;99.90
12634;DHT22;6382;48.614;8.880;2023-09-12T08:15:57;22.20;99.90
12634;DHT22;6382;48.614;8.880;2023-09-12T08:18:26;24.10;99.90
12634;DHT22;6382;48.614;8.880;2023-09-12T08:20:53;22.40;99.90
12634;DHT22;6382;48.614;8.880;2023-09-12T08:23:20;22.50;99.90
12634;DHT22;6382;48.614;8.880;2023-09-12T08:25:47;22.50;99.90
12634;DHT22;6382;48.614;8.880;2023-09-12T08:28:14;22.60;99.90
12634;DHT22;6382;48.614;8.880;2023-09-12T08:30:41;22.70;99.90
12634;DHT22;6382;48.614;8.880;2023-09-12T08:33:10;22.80;99.90
12634;DHT22;6382;48.614;8.880;2023-09-12T08:35:37;23.00;99.90
12634;DHT22;6382;48.614;8.880;2023-09-12T08:38:04;23.00;99.90
12634;DHT22;6382;48.614;8.880;2023-09-12T08:40:32;23.10;99.90
12634;DHT22;6382;48.614;8.880;2023-09-12T08:43:02;23.10;99.90
12634;DHT22;6382;48.614;8.880;2023-09-12T08:45:30;23.30;99.90
12634;DHT22;6382;48.614;8.880;2023-09-12T08:47:59;23.30;99.90
12634;DHT22;6382;48.614;8.880;2023-09-12T08:50:29;23.40;99.90
12634;DHT22;6382;48.614;8.880;2023-09-12T08:53:00;23.50;99.90
12634;DHT22;6382;48.614;8.880;2023-09-12T08:55:34;23.50;99.90
12634;DHT22;6382;48.614;8.880;2023-09-12T08:58:04;23.50;99.90
12634;DHT22;6382;48.614;8.880;2023-09-12T09:00:31;23.70;99.90
12634;DHT22;6382;48.614;8.880;2023-09-12T09:02:59;23.80;99.90
12634;DHT22;6382;48.614;8.880;2023-09-12T09:05:27;23.90;99.90
12634;DHT22;6382;48.614;8.880;2023-09-12T09:07:54;23.90;99.90
12634;DHT22;6382;48.614;8.880;2023-09-12T09:10:21;24.10;99.90
12634;DHT22;6382;48.614;8.880;2023-09-12T09:13:03;24.20;99.90
12634;DHT22;6382;48.614;8.880;2023-09-12T09:15:33;24.30;99.90
12634;DHT22;6382;48.614;8.880;2023-09-12T09:18:01;24.50;99.90
12634;DHT22;6382;48.614;8.880;2023-09-12T09:20:30;24.60;99.90
12634;DHT22;6382;48.614;8.880;2023-09-12T09:25:27;24.90;99.90
12634;DHT22;6382;48.614;8.880;2023-09-12T09:27:54;25.00;99.90
12634;DHT22;6382;48.614;8.880;2023-09-12T09:30:40;25.10;99.90
12634;DHT22;6382;48.614;8.880;2023-09-12T09:33:07;25.30;99.90
12634;DHT22;6382;48.614;8.880;2023-09-12T09:35:35;25.40;99.90
12634;DHT22;6382;48.614;8.880;2023-09-12T09:38:03;25.50;99.90
12634;DHT22;6382;48.614;8.880;2023-09-12T09:40:30;25.60;99.90
12634;DHT22;6382;48.614;8.880;2023-09-12T09:43:00;25.70;99.90
12634;DHT22;6382;48.614;8.880;2023-09-12T09:45:29;25.90;99.90
12634;DHT22;6382;48.614;8.880;2023-09-12T09:47:56;26.00;99.90
12634;DHT22;6382;48.614;8.880;2023-09-12T09:50:24;26.00;99.90
12634;DHT22;6382;48.614;8.880;2023-09-12T09:52:54;26.10;99.90
12634;DHT22;6382;48.614;8.880;2023-09-12T09:55:23;26.20;99.90
12634;DHT22;6382;48.614;8.880;2023-09-12T09:57:50;26.30;99.90
12634;DHT22;6382;48.614;8.880;2023-09-12T10:00:20;26.40;99.90
12634;DHT22;6382;48.614;8.880;2023-09-12T10:02:49;26.60;99.90
12634;DHT22;6382;48.614;8.880;2023-09-12T10:05:17;26.70;99.90
12634;DHT22;6382;48.614;8.880;2023-09-12T10:07:46;26.70;99.90
12634;DHT22;6382;48.614;8.880;2023-09-12T10:10:13;26.80;99.90
12634;DHT22;6382;48.614;8.880;2023-09-12T10:12:50;27.00;99.90
12634;DHT22;6382;48.614;8.880;2023-09-12T10:15:18;27.00;99.90
12634;DHT22;6382;48.614;8.880;2023-09-12T10:17:56;27.10;99.90
12634;DHT22;6382;48.614;8.880;2023-09-12T10:20:42;27.20;99.90
12634;DHT22;6382;48.614;8.880;2023-09-12T10:23:12;27.40;99.90
12634;DHT22;6382;48.614;8.880;2023-09-12T10:25:41;27.40;99.90
12634;DHT22;6382;48.614;8.880;2023-09-12T10:28:09;27.40;99.90
12634;DHT22;6382;48.614;8.880;2023-09-12T10:30:37;27.50;99.90
12634;DHT22;6382;48.614;8.880;2023-09-12T10:33:05;27.60;99.90
12634;DHT22;6382;48.614;8.880;2023-09-12T10:35:32;27.70;99.90
12634;DHT22;6382;48.614;8.880;2023-09-12T10:38:00;27.80;99.90
12634;DHT22;6382;48.614;8.880;2023-09-12T10:40:31;27.80;99.90
12634;DHT22;6382;48.614;8.880;2023-09-12T10:42:58;27.90;99.90
12634;DHT22;6382;48.614;8.880;2023-09-12T10:45:26;28.00;99.90
12634;DHT22;6382;48.614;8.880;2023-09-12T10:47:54;28.10;99.90
12634;DHT22;6382;48.614;8.880;2023-09-12T10:50:21;28.20;99.90
12634;DHT22;6382;48.614;8.880;2023-09-12T10:52:48;28.30;99.90
12634;DHT22;6382;48.614;8.880;2023-09-12T10:55:15;28.30;99.90
12634;DHT22;6382;48.614;8.880;2023-09-12T10:58:03;28.30;99.90
12634;DHT22;6382;48.614;8.880;2023-09-12T11:00:30;28.30;99.90
12634;DHT22;6382;48.614;8.880;2023-09-12T11:06:04;28.00;99.90
12634;DHT22;6382;48.614;8.880;2023-09-12T11:08:35;27.80;99.90
12634;DHT22;6382;48.614;8.880;2023-09-12T11:11:16;27.90;99.90
12634;DHT22;6382;48.614;8.880;2023-09-12T11:13:44;28.10;99.90
12634;DHT22;6382;48.614;8.880;2023-09-12T11:16:13;28.20;99.90
12634;DHT22;6382;48.614;8.880;2023-09-12T11:21:32;27.90;99.90
12634;DHT22;6382;48.614;8.880;2023-09-12T11:23:59;27.80;99.90
12634;DHT22;6382;48.614;8.880;2023-09-12T11:26:26;27.80;99.90
12634;DHT22;6382;48.614;8.880;2023-09-12T11:28:53;27.80;99.90
12634;DHT22;6382;48.614;8.880;2023-09-12T11:31:28;27.70;99.90
12634;DHT22;6382;48.614;8.880;2023-09-12T11:33:55;27.70;99.90
12634;DHT22;6382;48.614;8.880;2023-09-12T11:36:27;27.90;99.90
12634;DHT22;6382;48.614;8.880;2023-09-12T11:38:55;28.10;99.90
12634;DHT22;6382;48.614;8.880;2023-09-12T11:41:40;28.30;99.90
12634;DHT22;6382;48.614;8.880;2023-09-12T11:44:07;28.40;99.90
12634;DHT22;6382;48.614;8.880;2023-09-12T11:46:34;28.50;99.40
12634;DHT22;6382;48.614;8.880;2023-09-12T11:49:01;28.70;99.90
12634;DHT22;6382;48.614;8.880;2023-09-12T11:51:29;28.90;99.90
12634;DHT22;6382;48.614;8.880;2023-09-12T11:53:56;29.00;99.90
12634;DHT22;6382;48.614;8.880;2023-09-12T11:56:26;29.10;99.90
12634;DHT22;6382;48.614;8.880;2023-09-12T11:58:54;29.30;99.90
12634;DHT22;6382;48.614;8.880;2023-09-12T12:01:22;29.30;99.90
12634;DHT22;6382;48.614;8.880;2023-09-12T12:03:49;29.50;99.20
12634;DHT22;6382;48.614;8.880;2023-09-12T12:06:19;29.50;99.90
12634;DHT22;6382;48.614;8.880;2023-09-12T12:08:46;29.50;99.90
12634;DHT22;6382;48.614;8.880;2023-09-12T12:11:13;29.50;98.90
12634;DHT22;6382;48.614;8.880;2023-09-12T12:13:40;29.50;97.00
12634;DHT22;6382;48.614;8.880;2023-09-12T12:16:14;29.20;98.50
12634;DHT22;6382;48.614;8.880;2023-09-12T12:18:42;29.10;98.80
12634;DHT22;6382;48.614;8.880;2023-09-12T12:21:09;29.10;99.60
12634;DHT22;6382;48.614;8.880;2023-09-12T12:23:36;29.20;99.40
12634;DHT22;6382;48.614;8.880;2023-09-12T12:26:07;29.10;99.70
12634;DHT22;6382;48.614;8.880;2023-09-12T12:28:35;29.10;97.80
12634;DHT22;6382;48.614;8.880;2023-09-12T12:31:02;29.20;98.70
12634;DHT22;6382;48.614;8.880;2023-09-12T12:33:29;29.20;98.00
12634;DHT22;6382;48.614;8.880;2023-09-12T12:36:15;29.30;95.70
12634;DHT22;6382;48.614;8.880;2023-09-12T12:38:43;29.30;96.30
12634;DHT22;6382;48.614;8.880;2023-09-12T12:41:24;29.20;94.90
12634;DHT22;6382;48.614;8.880;2023-09-12T12:43:52;29.30;97.00
12634;DHT22;6382;48.614;8.880;2023-09-12T12:46:20;29.40;95.00
12634;DHT22;6382;48.614;8.880;2023-09-12T12:48:48;29.50;95.00
12634;DHT22;6382;48.614;8.880;2023-09-12T12:51:16;29.50;96.10
12634;DHT22;6382;48.614;8.880;2023-09-12T12:53:47;29.60;96.60
12634;DHT22;6382;48.614;8.880;2023-09-12T12:56:26;29.60;96.00
12634;DHT22;6382;48.614;8.880;2023-09-12T12:58:58;29.70;96.50
12634;DHT22;6382;48.614;8.880;2023-09-12T13:01:25;29.80;96.00
12634;DHT22;6382;48.614;8.880;2023-09-12T13:03:52;29.80;96.60
12634;DHT22;6382;48.614;8.880;2023-09-12T13:06:21;29.70;96.00
12634;DHT22;6382;48.614;8.880;2023-09-12T13:08:49;29.60;96.60
12634;DHT22;6382;48.614;8.880;2023-09-12T13:11:16;29.30;97.90
12634;DHT22;6382;48.614;8.880;2023-09-12T13:13:44;29.10;97.60
12634;DHT22;6382;48.614;8.880;2023-09-12T13:16:12;29.10;98.00
12634;DHT22;6382;48.614;8.880;2023-09-12T13:18:39;28.80;99.40
12634;DHT22;6382;48.614;8.880;2023-09-12T13:21:06;28.70;99.50
12634;DHT22;6382;48.614;8.880;2023-09-12T13:23:35;28.80;99.50
12634;DHT22;6382;48.614;8.880;2023-09-12T13:26:03;28.90;99.30
12634;DHT22;6382;48.614;8.880;2023-09-12T13:28:30;29.00;99.60
12634;DHT22;6382;48.614;8.880;2023-09-12T13:30:57;29.00;99.10
12634;DHT22;6382;48.614;8.880;2023-09-12T13:33:24;28.90;99.30
12634;DHT22;6382;48.614;8.880;2023-09-12T13:35:51;29.00;99.60
12634;DHT22;6382;48.614;8.880;2023-09-12T13:38:19;29.00;99.00
12634;DHT22;6382;48.614;8.880;2023-09-12T13:40:46;29.00;99.00
12634;DHT22;6382;48.614;8.880;2023-09-12T13:43:13;28.90;99.10
12634;DHT22;6382;48.614;8.880;2023-09-12T13:45:41;28.90;99.30
12634;DHT22;6382;48.614;8.880;2023-09-12T13:48:08;29.00;98.90
12634;DHT22;6382;48.614;8.880;2023-09-12T13:50:35;28.90;99.00
12634;DHT22;6382;48.614;8.880;2023-09-12T13:53:02;29.00;98.30
12634;DHT22;6382;48.614;8.880;2023-09-12T13:55:38;29.00;98.20
12634;DHT22;6382;48.614;8.880;2023-09-12T13:58:25;29.00;98.50
12634;DHT22;6382;48.614;8.880;2023-09-12T14:01:05;29.00;98.40
12634;DHT22;6382;48.614;8.880;2023-09-12T14:03:33;29.00;98.20
12634;DHT22;6382;48.614;8.880;2023-09-12T14:06:00;28.90;98.10
12634;DHT22;6382;48.614;8.880;2023-09-12T14:08:28;28.90;98.40
12634;DHT22;6382;48.614;8.880;2023-09-12T14:10:55;28.70;98.40
12634;DHT22;6382;48.614;8.880;2023-09-12T14:13:23;28.70;98.50
12634;DHT22;6382;48.614;8.880;2023-09-12T14:15:50;28.60;98.80
12634;DHT22;6382;48.614;8.880;2023-09-12T14:18:18;28.40;99.20
12634;DHT22;6382;48.614;8.880;2023-09-12T14:20:47;28.40;99.10
12634;DHT22;6382;48.614;8.880;2023-09-12T14:23:14;28.40;99.00
12634;DHT22;6382;48.614;8.880;2023-09-12T14:25:41;28.40;99.30
12634;DHT22;6382;48.614;8.880;2023-09-12T14:28:09;28.50;99.80
12634;DHT22;6382;48.614;8.880;2023-09-12T14:30:37;28.50;99.90
12634;DHT22;6382;48.614;8.880;2023-09-12T14:33:05;28.50;99.80
12634;DHT22;6382;48.614;8.880;2023-09-12T14:35:32;28.50;99.90
12634;DHT22;6382;48.614;8.880;2023-09-12T14:37:59;28.50;99.90
12634;DHT22;6382;48.614;8.880;2023-09-12T14:40:26;28.50;99.80
12634;DHT22;6382;48.614;8.880;2023-09-12T14:42:54;28.50;99.90
12634;DHT22;6382;48.614;8.880;2023-09-12T14:45:21;28.60;99.90
12634;DHT22;6382;48.614;8.880;2023-09-12T14:47:48;28.60;99.80
12634;DHT22;6382;48.614;8.880;2023-09-12T14:50:16;28.60;99.90
12634;DHT22;6382;48.614;8.880;2023-09-12T14:52:43;28.70;99.90
12634;DHT22;6382;48.614;8.880;2023-09-12T14:55:11;28.70;99.90
12634;DHT22;6382;48.614;8.880;2023-09-12T14:57:37;28.70;99.80
12634;DHT22;6382;48.614;8.880;2023-09-12T15:00:04;28.70;99.90
12634;DHT22;6382;48.614;8.880;2023-09-12T15:02:32;28.70;99.90
12634;DHT22;6382;48.614;8.880;2023-09-12T15:04:59;28.80;99.90
12634;DHT22;6382;48.614;8.880;2023-09-12T15:07:27;28.80;99.90
12634;DHT22;6382;48.614;8.880;2023-09-12T15:09:54;28.90;99.90
12634;DHT22;6382;48.614;8.880;2023-09-12T15:12:20;28.90;99.90
12634;DHT22;6382;48.614;8.880;2023-09-12T15:14:47;28.90;99.40
12634;DHT22;6382;48.614;8.880;2023-09-12T15:17:16;28.90;98.90
12634;DHT22;6382;48.614;8.880;2023-09-12T15:19:43;28.80;98.90
12634;DHT22;6382;48.614;8.880;2023-09-12T15:22:10;28.90;98.90
12634;DHT22;6382;48.614;8.880;2023-09-12T15:24:37;28.70;99.10
12634;DHT22;6382;48.614;8.880;2023-09-12T15:27:04;28.70;99.70
12634;DHT22;6382;48.614;8.880;2023-09-12T15:29:31;28.70;99.70
12634;DHT22;6382;48.614;8.880;2023-09-12T15:31:58;28.60;99.10
12634;DHT22;6382;48.614;8.880;2023-09-12T15:34:26;28.60;99.50
12634;DHT22;6382;48.614;8.880;2023-09-12T15:37:05;28.40;99.80
12634;DHT22;6382;48.614;8.880;2023-09-12T15:39:47;28.40;99.90
12634;DHT22;6382;48.614;8.880;2023-09-12T15:42:15;28.30;99.90
12634;DHT22;6382;48.614;8.880;2023-09-12T15:45:00;28.20;99.90
12634;DHT22;6382;48.614;8.880;2023-09-12T15:47:29;28.10;99.90
12634;DHT22;6382;48.614;8.880;2023-09-12T15:49:57;27.90;99.90
12634;DHT22;6382;48.614;8.880;2023-09-12T15:52:24;28.00;99.90
12634;DHT22;6382;48.614;8.880;2023-09-12T15:54:50;27.90;99.90
12634;DHT22;6382;48.614;8.880;2023-09-12T15:57:21;27.90;99.90
12634;DHT22;6382;48.614;8.880;2023-09-12T15:59:48;27.90;99.90
12634;DHT22;6382;48.614;8.880;2023-09-12T16:02:15;27.80;99.90
12634;DHT22;6382;48.614;8.880;2023-09-12T16:04:43;27.90;99.90